• Join FlightAware (Why Join?)
  • Login
  • US Flag 
01:56AM EDT


 

Airport Tracker/Info


-or-


 

Live Flight TrackerFlight Track Log ✈ N58BC ✈ 23-Jun-2013 ✈ KSLN - KHOU

Flight Track Log - Related Links

Times and Time Zones

All times are in EDT time to prevent confusion due to time zone crossing. See the N58BC flight status page for this flight to view local times or setup timezone preferences in your user account.

Time Position Orientation Groundspeed Altitude Reporting Facility
EDT Latitude Longitude Course Direction KTS MPH feet Rate Location/Type
09:58AM 38.7636 -97.6442 167° South 116 133 2,300  Level Kansas City Center
09:59AM 38.7339 -97.6369 169° South 114 131 3,600 1,380 Climbing Kansas City Center
10:00AM 38.7003 -97.6214 160° South 114 131 5,200 1,320 Climbing Kansas City Center
10:01AM 38.6661 -97.6053 160° South 125 144 6,400 780 Climbing Kansas City Center
10:02AM 38.3915 -97.5258 167° South  Level FlightAware Approximate
10:02AM 38.6217 -97.5950 170° South 161 185 6,900  Level Kansas City Center
10:03AM 38.3258 -97.5061 167° South  Level FlightAware Approximate
10:03AM 38.5714 -97.5886 174° South 180 207 8,000  Level Kansas City Center
10:04AM 38.5250 -97.5847 176° South 169 194 9,500 1,320 Climbing Kansas City Center
10:05AM 38.4792 -97.5758 171° South 165 190 10,800 1,200 Climbing Kansas City Center
10:06AM 38.4367 -97.5628 166° South 159 183 12,100 1,260 Climbing Kansas City Center
10:07AM 38.3925 -97.5517 169° South 160 184 13,500 1,380 Climbing Kansas City Center
10:08AM 38.3422 -97.5414 171° South 153 176 15,000 1,380 Climbing Kansas City Center
10:09AM 38.3003 -97.5350 173° South 151 174 16,400 1,200 Climbing Kansas City Center
10:10AM 38.2589 -97.5292 174° South 150 173 17,600 1,140 Climbing Kansas City Center
10:11AM 38.2250 -97.5147 161° South 131 151 18,800 960 Climbing Kansas City Center
10:12AM 38.1892 -97.4983 160° South 135 155 19,700 480 Climbing Kansas City Center
10:13AM 38.1458 -97.4656 149° Southeast 186 214 19,900 120 Climbing Kansas City Center
10:14AM 38.0914 -97.4428 162° South 204 235 20,000  Climbing Kansas City Center
10:15AM 38.0194 -97.4225 167° South 220 253 19,900  Descending Kansas City Center
10:16AM 37.9558 -97.4047 168° South 232 267 20,000  Climbing Kansas City Center
10:17AM 37.8928 -97.3864 167° South 231 266 20,000  Level Kansas City Center
10:18AM 37.8292 -97.3689 168° South 234 269 20,000  Level Kansas City Center
10:19AM 37.7647 -97.3503 167° South 236 272 20,000  Level Kansas City Center
10:20AM 37.6994 -97.3311 167° South 239 275 20,000  Level Kansas City Center
10:21AM 37.6347 -97.3136 168° South 238 274 20,000  Level Kansas City Center
10:22AM 37.5561 -97.2903 167° South 240 276 20,000 240 Level Kansas City Center
10:23AM 37.4917 -97.2725 168° South 236 272 20,500 720 Climbing Kansas City Center
10:24AM 37.4375 -97.2567 167° South 200 230 21,600 960 Climbing Kansas City Center
10:25AM 37.3867 -97.2408 166° South 187 215 22,600 660 Climbing Kansas City Center
10:27AM 37.3333 -97.2272 169° South 192 221 23,000 180 Climbing Kansas City Center
10:28AM 37.2731 -97.2128 169° South 212 244 23,000  Level Kansas City Center
10:29AM 37.2081 -97.1947 168° South 234 269 23,000  Level Kansas City Center
10:30AM 37.1269 -97.1725 168° South 245 282 23,000  Level Kansas City Center
10:31AM 37.0617 -97.1506 165° South 245 282 23,000  Level Kansas City Center
10:32AM 36.9936 -97.1328 168° South 248 285 23,000  Level Kansas City Center
10:33AM 36.9264 -97.1139 167° South 248 285 23,000  Level Kansas City Center
10:34AM 36.8592 -97.0969 169° South 247 284 23,000  Level Kansas City Center
10:35AM 36.7814 -97.0756 168° South 246 283 23,000  Level Kansas City Center
10:36AM 36.7153 -97.0581 168° South 245 282 23,000  Level Kansas City Center
10:37AM 36.6461 -97.0389 167° South 250 288 23,000  Level Kansas City Center
10:38AM 36.5792 -97.0217 168° South 249 287 23,000  Level Kansas City Center
10:39AM 36.5028 -96.9986 166° South 247 284 23,000  Level Kansas City Center
10:40AM 36.4339 -96.9814 169° South 250 288 23,000  Level Kansas City Center
10:41AM 36.3653 -96.9625 168° South 252 290 23,000  Level Kansas City Center
10:42AM 36.2964 -96.9450 168° South 252 290 23,000  Level Kansas City Center
10:43AM 36.2267 -96.9258 167° South 255 293 23,000  Level Kansas City Center
10:44AM 36.1575 -96.9064 167° South 254 292 23,000  Level Kansas City Center
10:45AM 36.0739 -96.8847 168° South 255 293 23,000  Level Kansas City Center
10:46AM 36.0061 -96.8664 168° South 252 290 23,000  Level Kansas City Center
10:47AM 35.9375 -96.8475 167° South 253 291 23,000  Level Kansas City Center
10:48AM 35.8669 -96.8292 168° South 255 293 23,000  Level Kansas City Center
10:49AM 35.7981 -96.8089 167° South 255 293 23,000  Level Kansas City Center
10:50AM 35.7281 -96.7914 169° South 256 295 23,000  Level Kansas City Center
10:51AM 35.6589 -96.7717 167° South 254 292 23,000  Level Kansas City Center
10:52AM 35.5744 -96.7489 168° South 256 295 23,000  Level Kansas City Center
10:53AM 35.5042 -96.7314 169° South 257 296 23,000  Level Kansas City Center
10:55AM 35.4167 -96.7106 169° South 256 295 23,000  Level Fort Worth Center
10:56AM 35.3458 -96.6908 167° South 256 295 23,000  Level Fort Worth Center
10:57AM 35.2769 -96.6736 168° South 256 295 23,000  Level Fort Worth Center
10:58AM 35.2081 -96.6614 172° South 256 295 23,000  Level Fort Worth Center
10:59AM 35.1369 -96.6569 177° South 256 295 23,000  Level Fort Worth Center
11:00AM 35.0681 -96.6550 179° South 256 295 23,000  Level Fort Worth Center
11:01AM 34.9972 -96.6506 177° South 256 295 23,000  Level Fort Worth Center
11:02AM 34.9242 -96.6489 179° South 256 295 23,000  Level Fort Worth Center
11:03AM 34.8533 -96.6419 175° South 256 295 23,000  Level Fort Worth Center
11:04AM 34.7822 -96.6400 179° South 256 295 23,000  Level Fort Worth Center
11:05AM 34.7092 -96.6356 177° South 256 295 23,000  Level Fort Worth Center
11:06AM 34.6403 -96.6311 177° South 256 295 23,000  Level Fort Worth Center
11:07AM 34.5672 -96.6292 179° South 256 295 23,000  Level Fort Worth Center
11:08AM 34.4964 -96.6247 177° South 251 289 23,000  Level Fort Worth Center
11:09AM 34.4275 -96.6203 177° South 251 289 23,000  Level Fort Worth Center
11:10AM 34.3567 -96.6161 177° South 251 289 23,000  Level Fort Worth Center
11:11AM 34.2836 -96.6142 179° South 251 289 23,000  Level Fort Worth Center
11:12AM 34.2125 -96.6097 177° South 251 289 23,000  Level Fort Worth Center
11:13AM 34.1436 -96.6056 177° South 251 289 23,000  Level Fort Worth Center
11:14AM 34.0853 -96.5986 174° South 251 289 23,000  Level Fort Worth Center
11:15AM 34.0142 -96.5967 179° South 251 289 23,000  Level Fort Worth Center
11:16AM 33.9453 -96.5922 177° South 251 289 23,000  Level Fort Worth Center
11:17AM 33.8744 -96.5878 177° South 251 289 23,000  Level Fort Worth Center
11:18AM 33.7950 -96.5861 179° South 251 289 23,000  Level Fort Worth Center
11:19AM 33.7239 -96.5819 177° South 256 295 23,000  Level Fort Worth Center
11:20AM 33.6531 -96.5800 179° South 251 289 23,000  Level Fort Worth Center
11:21AM 33.5842 -96.5756 177° South 251 289 23,000  Level Fort Worth Center
11:22AM 33.5131 -96.5714 177° South 251 289 23,000  Level Fort Worth Center
11:23AM 33.4442 -96.5669 177° South 251 289 23,000  Level Fort Worth Center
11:25AM 33.3022 -96.5608 178° South 251 289 23,000  Level Fort Worth Center
11:26AM 33.2333 -96.5567 177° South 251 289 23,000  Level Fort Worth Center
11:27AM 33.1622 -96.5522 177° South 251 289 23,000  Level Fort Worth Center
11:28AM 33.0933 -96.5481 177° South 251 289 23,000  Level Fort Worth Center
11:29AM 33.0203 -96.5439 177° South 256 295 23,000  Level Fort Worth Center
11:30AM 32.9472 -96.5419 179° South 256 295 23,000  Level Fort Worth Center
11:31AM 32.8742 -96.5378 177° South 265 305 23,000  Level Fort Worth Center
11:32AM 32.8117 -96.5358 179° South 265 305 23,000  Level Fort Worth Center
11:33AM 32.7342 -96.5317 177° South 265 305 23,000  Level Fort Worth Center
11:34AM 32.6717 -96.5300 179° South 255 293 23,000  Level Fort Worth Center
11:35AM 32.5944 -96.5258 177° South 255 293 23,000  Level Fort Worth Center
11:36AM 32.5317 -96.5214 177° South 255 293 23,000  Level Fort Worth Center
11:37AM 32.4522 -96.5172 177° South 255 293 23,000  Level Fort Worth Center
11:38AM 32.3875 -96.5131 177° South 260 299 23,000  Level Fort Worth Center
11:39AM 32.3125 -96.5111 179° South 260 299 23,000  Level Fort Worth Center
11:40AM 32.2478 -96.5069 177° South 254 292 23,000  Level Fort Worth Center
11:41AM 32.1683 -96.5028 177° South 254 292 23,000  Level Fort Worth Center
11:42AM 32.0994 -96.4961 175° South 254 292 23,000  Level Fort Worth Center
11:43AM 32.0264 -96.4944 179° South 254 292 23,000  Level Fort Worth Center
11:44AM 31.9572 -96.4903 177° South 254 292 23,000  Level Fort Worth Center
11:45AM 31.8842 -96.4886 179° South 254 292 23,000  Level Fort Worth Center
11:46AM 31.8153 -96.4844 177° South 254 292 23,000  Level Fort Worth Center
11:47AM 31.7144 -96.4783 177° South 253 291 23,000  Level Houston Center
11:48AM 31.6422 -96.4739 177° South 257 296 23,000  Level Houston Center
11:49AM 31.5717 -96.4697 177° South 253 291 23,000  Level Houston Center
11:50AM 31.4992 -96.4667 178° South 256 295 23,000  Level Houston Center
11:51AM 31.4275 -96.4628 177° South 255 293 23,000  Level Houston Center
11:52AM 31.3544 -96.4592 178° South 255 293 23,000  Level Houston Center
11:53AM 31.2719 -96.4544 177° South 256 295 23,000  Level Houston Center
11:54AM 31.2008 -96.4511 178° South 253 291 23,000  Level Houston Center
11:55AM 31.1283 -96.4478 178° South 255 293 23,000  Level Houston Center
11:56AM 31.0564 -96.4439 177° South 256 295 23,000 -60 Level Houston Center
11:57AM 30.9831 -96.4408 178° South 259 298 22,900 -300 Descending Houston Center
11:58AM 30.9175 -96.4392 179° South 260 299 22,500 -720 Descending Houston Center
11:59AM 30.8522 -96.4367 178° South 261 300 21,700 -900 Descending Houston Center
12:00PM 30.7825 -96.4319 177° South 261 300 20,900 -960 Descending Houston Center
12:01PM 30.7006 -96.4289 178° South 260 299 19,800 -900 Descending Houston Center
12:02PM 30.6331 -96.4244 177° South 257 296 19,000 -900 Descending Houston Center
12:03PM 30.5697 -96.3950 158° South 239 275 18,000 -900 Descending Houston Center
12:04PM 30.5164 -96.3597 150° Southeast 236 272 17,200 -1,200 Descending Houston Center
12:05PM 30.4519 -96.3403 165° South 238 274 15,700 -1,620 Descending Houston Center
12:06PM 30.4275 -96.3300 160° South 233 268 14,900 -2,100 Descending Houston Center
12:06PM 30.3933 -96.3178 163° South 217 250 13,600 -2,280 Descending Houston Center
12:07PM 30.3697 -96.3094 163° South 219 252 12,600 -2,460 Descending Houston Center
12:07PM 30.3331 -96.2978 165° South 207 238 10,900 -2,340 Descending Houston Center
12:08PM 30.2789 -96.2772 162° South 191 220 8,900 -1,380 Descending Houston Center
12:09PM 30.2250 -96.2617 166° South 202 232 8,200 -600 Descending Houston Center
12:10PM 30.2003 -96.2514 160° South 197 227 8,000 -600 Descending Houston Center
12:11PM 30.1472 -96.2344 165° South 196 226 7,300 -540 Descending Houston Center
12:12PM 30.1028 -96.2175 162° South 190 219 6,900 -540 Descending Houston Center
12:13PM 30.0447 -96.1983 164° South 181 208 6,300 -600 Descending Houston Center
12:14PM 29.9978 -96.1822 163° South 177 204 5,700 -540 Descending Houston Center
12:15PM 29.9494 -96.1658 164° South 179 206 5,200 -540 Descending Houston Center
12:16PM 29.9047 -96.1447 158° South 175 201 4,700 -540 Descending Houston Center
12:17PM 29.8681 -96.1069 138° Southeast 179 206 4,200 -360 Descending Houston Center
12:18PM 29.8411 -96.0594 123° Southeast 178 205 4,000 -180 Descending Houston Center
12:19PM 29.8078 -96.0086 127° Southeast 180 207 3,900 -300 Descending Houston Center
12:20PM 29.7775 -95.9617 127° Southeast 182 209 3,500 -480 Descending Houston Center
12:21PM 29.7575 -95.9086 113° Southeast 184 212 3,000 -240 Descending Houston Center
12:22PM 29.7519 -95.8367 95° East 187 215 3,000  Level Houston Center
12:23PM 29.7469 -95.7786 96° East 184 212 3,000  Level Houston Center
12:24PM 29.7406 -95.7192 97° East 186 214 3,000  Level Houston Center
12:25PM 29.7344 -95.6592 97° East 189 217 3,000  Level Houston Center
12:26PM 29.7289 -95.6011 96° East 185 213 3,000  Level Houston Center
12:27PM 29.7256 -95.5458 94° East 178 205 3,000 -300 Level Houston Center
12:29PM 29.7339 -95.4697 83° East 176 203 2,400 -540 Descending Houston Center
12:29PM 29.7272 -95.4272 100° East 171 197 2,000 -240 Descending Houston Center
12:31PM 29.7108 -95.3778 111° Southeast 167 192 2,000 -360 Level Houston Center
12:32PM 29.6881 -95.3294 118° Southeast 169 194 1,300 -780 Descending Houston Center
12:33PM 29.6583 -95.2950 135° Southeast 162 186 400 -540 Descending Houston Center
12:34PM 29.6333 -95.2639 133° Southeast 157 181 200 -240 Descending Houston Center